Main page
METAR-TAF:

METAR-TAF

Airports :

RAF Wittering

Wittering, England

latitude: 52-37N, longitude: 000-28W, elevation: 84 m

Current weather observation

The report was made 1 hour and 19 minutes ago, at 19:50 UTC
Wind 3 kt from the Southeast
Temperature 17°C
Humidity 59%
Pressure 1019 hPa
Visibility 10 km or more

METAR: EGXT 201950Z AUTO 13003KT 9999 NCD 17/09 Q1019

Time: 22:09 (21:09 UTC)


TAF: missing

Weather observations and forecasts of more than 4000 airports (METAR and TAF reports).

The available stations are represented by yellow and red dots on the map.

Hover mouse over dot to see the name of the station.

Then click to see weather observations and forecasts.

To change the map : click on the green buttons with a black cross to zoom in, on the green button with a dash to zoom out, or on the green arrows for adjacent maps.


METAR-TAF: